sensor_id;sensor_type;location;lat;lon;timestamp;P1;durP1;ratioP1;P2;durP2;ratioP2
59074;SDS011;44860;53.020;6.738;2023-06-05T00:01:02;6.57;;;5.00;;
59074;SDS011;44860;53.020;6.738;2023-06-05T00:03:28;8.00;;;4.68;;
59074;SDS011;44860;53.020;6.738;2023-06-05T00:05:54;7.93;;;5.15;;
59074;SDS011;44860;53.020;6.738;2023-06-05T00:08:20;6.95;;;4.97;;
59074;SDS011;44860;53.020;6.738;2023-06-05T00:10:46;6.75;;;4.95;;
59074;SDS011;44860;53.020;6.738;2023-06-05T00:13:12;8.23;;;5.30;;
59074;SDS011;44860;53.020;6.738;2023-06-05T00:15:38;9.43;;;5.38;;
59074;SDS011;44860;53.020;6.738;2023-06-05T00:18:03;9.30;;;5.80;;
59074;SDS011;44860;53.020;6.738;2023-06-05T00:20:30;8.60;;;5.57;;
59074;SDS011;44860;53.020;6.738;2023-06-05T00:22:55;7.00;;;5.35;;
59074;SDS011;44860;53.020;6.738;2023-06-05T00:25:21;8.07;;;5.55;;
59074;SDS011;44860;53.020;6.738;2023-06-05T00:27:47;8.55;;;5.05;;
59074;SDS011;44860;53.020;6.738;2023-06-05T00:30:13;6.43;;;5.30;;
59074;SDS011;44860;53.020;6.738;2023-06-05T00:32:38;7.22;;;5.18;;
59074;SDS011;44860;53.020;6.738;2023-06-05T00:35:05;6.55;;;5.32;;
59074;SDS011;44860;53.020;6.738;2023-06-05T00:37:31;6.43;;;5.07;;
59074;SDS011;44860;53.020;6.738;2023-06-05T00:39:58;8.60;;;5.38;;
59074;SDS011;44860;53.020;6.738;2023-06-05T00:42:24;9.35;;;5.25;;
59074;SDS011;44860;53.020;6.738;2023-06-05T00:44:52;7.70;;;5.38;;
59074;SDS011;44860;53.020;6.738;2023-06-05T00:47:18;8.57;;;5.20;;
59074;SDS011;44860;53.020;6.738;2023-06-05T00:49:44;8.90;;;5.43;;
59074;SDS011;44860;53.020;6.738;2023-06-05T00:52:10;9.27;;;5.55;;
59074;SDS011;44860;53.020;6.738;2023-06-05T00:54:36;7.90;;;5.45;;
59074;SDS011;44860;53.020;6.738;2023-06-05T00:57:02;7.97;;;5.70;;
59074;SDS011;44860;53.020;6.738;2023-06-05T00:59:29;7.80;;;5.90;;
59074;SDS011;44860;53.020;6.738;2023-06-05T01:01:57;9.77;;;5.55;;
59074;SDS011;44860;53.020;6.738;2023-06-05T01:04:24;8.05;;;5.43;;
59074;SDS011;44860;53.020;6.738;2023-06-05T01:06:51;7.50;;;5.60;;
59074;SDS011;44860;53.020;6.738;2023-06-05T01:09:18;7.50;;;5.60;;
59074;SDS011;44860;53.020;6.738;2023-06-05T01:11:52;10.95;;;6.25;;
59074;SDS011;44860;53.020;6.738;2023-06-05T01:14:28;8.10;;;5.88;;
59074;SDS011;44860;53.020;6.738;2023-06-05T01:16:58;11.15;;;6.15;;
59074;SDS011;44860;53.020;6.738;2023-06-05T01:19:26;9.52;;;6.07;;
59074;SDS011;44860;53.020;6.738;2023-06-05T01:21:56;9.07;;;6.07;;
59074;SDS011;44860;53.020;6.738;2023-06-05T01:24:23;10.55;;;6.22;;
59074;SDS011;44860;53.020;6.738;2023-06-05T01:32:21;10.02;;;6.05;;
59074;SDS011;44860;53.020;6.738;2023-06-05T01:34:54;13.27;;;7.10;;
59074;SDS011;44860;53.020;6.738;2023-06-05T01:37:21;9.05;;;6.32;;
59074;SDS011;44860;53.020;6.738;2023-06-05T01:39:50;7.38;;;6.28;;
59074;SDS011;44860;53.020;6.738;2023-06-05T01:42:18;9.60;;;7.25;;
59074;SDS011;44860;53.020;6.738;2023-06-05T01:44:44;9.20;;;6.57;;
59074;SDS011;44860;53.020;6.738;2023-06-05T01:47:10;10.43;;;6.88;;
59074;SDS011;44860;53.020;6.738;2023-06-05T01:49:36;10.05;;;7.00;;
59074;SDS011;44860;53.020;6.738;2023-06-05T01:52:02;11.35;;;6.50;;
59074;SDS011;44860;53.020;6.738;2023-06-05T01:54:27;11.40;;;6.75;;
59074;SDS011;44860;53.020;6.738;2023-06-05T01:56:54;10.43;;;6.65;;
59074;SDS011;44860;53.020;6.738;2023-06-05T01:59:20;12.15;;;6.80;;
59074;SDS011;44860;53.020;6.738;2023-06-05T02:01:46;12.23;;;6.90;;
59074;SDS011;44860;53.020;6.738;2023-06-05T02:04:14;8.30;;;6.53;;
59074;SDS011;44860;53.020;6.738;2023-06-05T02:06:41;9.77;;;7.07;;
59074;SDS011;44860;53.020;6.738;2023-06-05T02:09:08;11.60;;;7.05;;
59074;SDS011;44860;53.020;6.738;2023-06-05T02:11:35;10.15;;;6.72;;
59074;SDS011;44860;53.020;6.738;2023-06-05T02:14:03;11.27;;;7.00;;
59074;SDS011;44860;53.020;6.738;2023-06-05T02:16:30;9.70;;;7.00;;
59074;SDS011;44860;53.020;6.738;2023-06-05T02:18:56;11.35;;;7.70;;
59074;SDS011;44860;53.020;6.738;2023-06-05T02:21:31;11.88;;;7.53;;
59074;SDS011;44860;53.020;6.738;2023-06-05T02:24:01;11.52;;;7.30;;
59074;SDS011;44860;53.020;6.738;2023-06-05T02:26:27;11.68;;;8.02;;
59074;SDS011;44860;53.020;6.738;2023-06-05T02:28:53;9.38;;;7.53;;
59074;SDS011;44860;53.020;6.738;2023-06-05T02:31:21;11.75;;;8.40;;
59074;SDS011;44860;53.020;6.738;2023-06-05T02:33:53;11.65;;;7.60;;
59074;SDS011;44860;53.020;6.738;2023-06-05T02:36:20;10.50;;;7.70;;
59074;SDS011;44860;53.020;6.738;2023-06-05T02:38:47;11.77;;;7.75;;
59074;SDS011;44860;53.020;6.738;2023-06-05T02:41:15;11.68;;;8.32;;
59074;SDS011;44860;53.020;6.738;2023-06-05T02:43:43;12.70;;;8.38;;
59074;SDS011;44860;53.020;6.738;2023-06-05T02:46:10;13.40;;;8.52;;
59074;SDS011;44860;53.020;6.738;2023-06-05T02:48:36;11.43;;;8.10;;
59074;SDS011;44860;53.020;6.738;2023-06-05T02:51:02;15.35;;;8.48;;
59074;SDS011;44860;53.020;6.738;2023-06-05T02:53:28;13.40;;;8.73;;
59074;SDS011;44860;53.020;6.738;2023-06-05T02:55:54;14.15;;;8.82;;
59074;SDS011;44860;53.020;6.738;2023-06-05T02:58:20;10.80;;;8.60;;
59074;SDS011;44860;53.020;6.738;2023-06-05T03:00:46;13.85;;;8.70;;
59074;SDS011;44860;53.020;6.738;2023-06-05T03:03:13;12.30;;;8.50;;
59074;SDS011;44860;53.020;6.738;2023-06-05T03:05:42;13.82;;;9.38;;
59074;SDS011;44860;53.020;6.738;2023-06-05T03:08:09;12.60;;;9.02;;
59074;SDS011;44860;53.020;6.738;2023-06-05T03:10:35;10.38;;;8.50;;
59074;SDS011;44860;53.020;6.738;2023-06-05T03:13:01;10.18;;;7.90;;
59074;SDS011;44860;53.020;6.738;2023-06-05T03:15:27;12.38;;;9.00;;
59074;SDS011;44860;53.020;6.738;2023-06-05T03:17:53;13.90;;;8.57;;
59074;SDS011;44860;53.020;6.738;2023-06-05T03:20:19;15.68;;;8.95;;
59074;SDS011;44860;53.020;6.738;2023-06-05T03:22:44;10.82;;;8.02;;
59074;SDS011;44860;53.020;6.738;2023-06-05T03:25:10;11.90;;;8.05;;
59074;SDS011;44860;53.020;6.738;2023-06-05T03:27:36;13.48;;;8.95;;
59074;SDS011;44860;53.020;6.738;2023-06-05T03:30:03;12.93;;;8.30;;
59074;SDS011;44860;53.020;6.738;2023-06-05T03:32:29;11.25;;;8.35;;
59074;SDS011;44860;53.020;6.738;2023-06-05T03:34:55;13.68;;;8.43;;
59074;SDS011;44860;53.020;6.738;2023-06-05T03:37:21;11.05;;;8.23;;
59074;SDS011;44860;53.020;6.738;2023-06-05T03:39:46;11.95;;;7.68;;
59074;SDS011;44860;53.020;6.738;2023-06-05T03:42:12;12.18;;;7.40;;
59074;SDS011;44860;53.020;6.738;2023-06-05T03:44:38;11.60;;;7.22;;
59074;SDS011;44860;53.020;6.738;2023-06-05T03:47:04;11.75;;;7.05;;
59074;SDS011;44860;53.020;6.738;2023-06-05T03:49:30;12.48;;;7.60;;
59074;SDS011;44860;53.020;6.738;2023-06-05T03:51:56;12.43;;;7.20;;
59074;SDS011;44860;53.020;6.738;2023-06-05T03:54:28;11.20;;;7.00;;
59074;SDS011;44860;53.020;6.738;2023-06-05T03:56:58;11.70;;;6.82;;
59074;SDS011;44860;53.020;6.738;2023-06-05T03:59:25;10.68;;;7.03;;
59074;SDS011;44860;53.020;6.738;2023-06-05T04:01:53;11.60;;;7.15;;
59074;SDS011;44860;53.020;6.738;2023-06-05T04:04:19;9.02;;;6.70;;
59074;SDS011;44860;53.020;6.738;2023-06-05T04:06:45;10.82;;;7.40;;
59074;SDS011;44860;53.020;6.738;2023-06-05T04:09:12;12.98;;;6.32;;
59074;SDS011;44860;53.020;6.738;2023-06-05T04:11:39;10.43;;;6.40;;
59074;SDS011;44860;53.020;6.738;2023-06-05T04:14:05;8.93;;;6.10;;
59074;SDS011;44860;53.020;6.738;2023-06-05T04:16:32;8.45;;;5.82;;
59074;SDS011;44860;53.020;6.738;2023-06-05T04:19:00;8.68;;;5.75;;
59074;SDS011;44860;53.020;6.738;2023-06-05T04:21:27;10.57;;;6.15;;
59074;SDS011;44860;53.020;6.738;2023-06-05T04:23:52;8.95;;;6.00;;
59074;SDS011;44860;53.020;6.738;2023-06-05T04:26:18;10.85;;;6.32;;
59074;SDS011;44860;53.020;6.738;2023-06-05T04:28:45;8.98;;;5.80;;
59074;SDS011;44860;53.020;6.738;2023-06-05T04:31:15;9.77;;;6.32;;
59074;SDS011;44860;53.020;6.738;2023-06-05T04:33:41;7.90;;;5.50;;
59074;SDS011;44860;53.020;6.738;2023-06-05T04:36:07;68.15;;;7.95;;
59074;SDS011;44860;53.020;6.738;2023-06-05T04:38:32;10.55;;;5.93;;
59074;SDS011;44860;53.020;6.738;2023-06-05T04:40:59;8.40;;;5.75;;
59074;SDS011;44860;53.020;6.738;2023-06-05T04:43:24;8.35;;;6.40;;
59074;SDS011;44860;53.020;6.738;2023-06-05T04:45:50;11.15;;;6.95;;
59074;SDS011;44860;53.020;6.738;2023-06-05T04:48:16;10.63;;;7.88;;
59074;SDS011;44860;53.020;6.738;2023-06-05T04:50:42;11.20;;;8.93;;
59074;SDS011;44860;53.020;6.738;2023-06-05T04:53:08;15.23;;;11.65;;
59074;SDS011;44860;53.020;6.738;2023-06-05T04:55:33;12.45;;;11.15;;
59074;SDS011;44860;53.020;6.738;2023-06-05T04:57:59;12.68;;;10.82;;
59074;SDS011;44860;53.020;6.738;2023-06-05T05:00:25;14.18;;;12.27;;
59074;SDS011;44860;53.020;6.738;2023-06-05T05:02:52;12.98;;;11.52;;
59074;SDS011;44860;53.020;6.738;2023-06-05T05:05:18;13.45;;;11.95;;
59074;SDS011;44860;53.020;6.738;2023-06-05T05:07:44;14.80;;;12.98;;
59074;SDS011;44860;53.020;6.738;2023-06-05T05:10:10;13.57;;;12.18;;
59074;SDS011;44860;53.020;6.738;2023-06-05T05:12:36;14.38;;;12.88;;
59074;SDS011;44860;53.020;6.738;2023-06-05T05:15:03;16.13;;;14.05;;
59074;SDS011;44860;53.020;6.738;2023-06-05T05:17:29;16.95;;;13.57;;
59074;SDS011;44860;53.020;6.738;2023-06-05T05:19:56;14.77;;;13.27;;
59074;SDS011;44860;53.020;6.738;2023-06-05T05:22:22;14.50;;;12.77;;
59074;SDS011;44860;53.020;6.738;2023-06-05T05:24:48;15.80;;;13.15;;
59074;SDS011;44860;53.020;6.738;2023-06-05T05:27:14;14.25;;;12.75;;
59074;SDS011;44860;53.020;6.738;2023-06-05T05:29:39;15.18;;;11.77;;
59074;SDS011;44860;53.020;6.738;2023-06-05T05:32:05;13.88;;;10.57;;
59074;SDS011;44860;53.020;6.738;2023-06-05T05:34:31;12.75;;;10.45;;
59074;SDS011;44860;53.020;6.738;2023-06-05T05:36:59;11.30;;;8.57;;
59074;SDS011;44860;53.020;6.738;2023-06-05T05:39:24;10.75;;;8.73;;
59074;SDS011;44860;53.020;6.738;2023-06-05T05:41:50;8.48;;;7.57;;
59074;SDS011;44860;53.020;6.738;2023-06-05T05:44:16;8.27;;;6.40;;
59074;SDS011;44860;53.020;6.738;2023-06-05T05:46:41;8.43;;;6.38;;
59074;SDS011;44860;53.020;6.738;2023-06-05T05:49:10;9.73;;;6.10;;
59074;SDS011;44860;53.020;6.738;2023-06-05T05:51:35;6.50;;;5.68;;
59074;SDS011;44860;53.020;6.738;2023-06-05T05:54:01;10.40;;;6.03;;
59074;SDS011;44860;53.020;6.738;2023-06-05T05:56:27;7.75;;;5.15;;
59074;SDS011;44860;53.020;6.738;2023-06-05T05:58:53;6.00;;;4.60;;
59074;SDS011;44860;53.020;6.738;2023-06-05T06:01:19;6.22;;;4.82;;
59074;SDS011;44860;53.020;6.738;2023-06-05T06:03:47;6.40;;;4.72;;
59074;SDS011;44860;53.020;6.738;2023-06-05T06:06:13;6.68;;;4.35;;
59074;SDS011;44860;53.020;6.738;2023-06-05T06:08:38;6.57;;;4.47;;
59074;SDS011;44860;53.020;6.738;2023-06-05T06:11:04;5.95;;;4.53;;
59074;SDS011;44860;53.020;6.738;2023-06-05T06:13:32;6.03;;;4.20;;
59074;SDS011;44860;53.020;6.738;2023-06-05T06:16:01;4.68;;;3.97;;
59074;SDS011;44860;53.020;6.738;2023-06-05T06:18:27;5.75;;;3.65;;
59074;SDS011;44860;53.020;6.738;2023-06-05T06:20:53;7.25;;;3.83;;
59074;SDS011;44860;53.020;6.738;2023-06-05T06:23:19;5.68;;;4.32;;
59074;SDS011;44860;53.020;6.738;2023-06-05T06:25:44;5.80;;;3.97;;
59074;SDS011;44860;53.020;6.738;2023-06-05T06:28:10;6.20;;;4.03;;
59074;SDS011;44860;53.020;6.738;2023-06-05T06:30:36;7.28;;;4.60;;
59074;SDS011;44860;53.020;6.738;2023-06-05T06:33:02;5.50;;;4.50;;
59074;SDS011;44860;53.020;6.738;2023-06-05T06:35:29;6.07;;;4.50;;
59074;SDS011;44860;53.020;6.738;2023-06-05T06:37:57;6.90;;;4.20;;
59074;SDS011;44860;53.020;6.738;2023-06-05T06:40:23;6.68;;;4.25;;
59074;SDS011;44860;53.020;6.738;2023-06-05T06:42:49;5.88;;;4.40;;
59074;SDS011;44860;53.020;6.738;2023-06-05T06:45:16;6.43;;;4.88;;
59074;SDS011;44860;53.020;6.738;2023-06-05T06:47:42;7.38;;;4.72;;
59074;SDS011;44860;53.020;6.738;2023-06-05T06:50:08;5.63;;;4.40;;
59074;SDS011;44860;53.020;6.738;2023-06-05T06:52:34;5.65;;;4.28;;
59074;SDS011;44860;53.020;6.738;2023-06-05T06:55:00;9.18;;;4.95;;
59074;SDS011;44860;53.020;6.738;2023-06-05T06:57:26;6.40;;;4.40;;
59074;SDS011;44860;53.020;6.738;2023-06-05T06:59:51;5.95;;;3.97;;
59074;SDS011;44860;53.020;6.738;2023-06-05T07:02:19;5.53;;;4.18;;
59074;SDS011;44860;53.020;6.738;2023-06-05T07:04:46;6.10;;;4.13;;
59074;SDS011;44860;53.020;6.738;2023-06-05T07:07:12;6.45;;;4.00;;
59074;SDS011;44860;53.020;6.738;2023-06-05T07:09:43;5.38;;;3.70;;
59074;SDS011;44860;53.020;6.738;2023-06-05T07:12:10;5.35;;;3.58;;
59074;SDS011;44860;53.020;6.738;2023-06-05T07:14:37;5.32;;;3.80;;
59074;SDS011;44860;53.020;6.738;2023-06-05T07:17:03;4.78;;;3.75;;
59074;SDS011;44860;53.020;6.738;2023-06-05T07:19:33;7.57;;;3.58;;
59074;SDS011;44860;53.020;6.738;2023-06-05T07:22:01;4.63;;;3.53;;
59074;SDS011;44860;53.020;6.738;2023-06-05T07:24:29;6.38;;;4.00;;
59074;SDS011;44860;53.020;6.738;2023-06-05T07:27:04;4.55;;;3.88;;
59074;SDS011;44860;53.020;6.738;2023-06-05T07:29:30;5.05;;;3.75;;
59074;SDS011;44860;53.020;6.738;2023-06-05T07:31:57;6.65;;;3.63;;
59074;SDS011;44860;53.020;6.738;2023-06-05T07:34:24;6.28;;;3.75;;
59074;SDS011;44860;53.020;6.738;2023-06-05T07:36:50;4.25;;;3.42;;
59074;SDS011;44860;53.020;6.738;2023-06-05T07:39:17;6.28;;;3.20;;
59074;SDS011;44860;53.020;6.738;2023-06-05T07:41:44;3.47;;;2.92;;
59074;SDS011;44860;53.020;6.738;2023-06-05T07:44:11;4.80;;;3.17;;
59074;SDS011;44860;53.020;6.738;2023-06-05T07:46:41;5.45;;;3.47;;
59074;SDS011;44860;53.020;6.738;2023-06-05T07:49:08;6.82;;;4.15;;
59074;SDS011;44860;53.020;6.738;2023-06-05T07:51:34;5.90;;;3.72;;
59074;SDS011;44860;53.020;6.738;2023-06-05T07:54:11;6.93;;;4.10;;
59074;SDS011;44860;53.020;6.738;2023-06-05T07:56:38;5.82;;;3.80;;
59074;SDS011;44860;53.020;6.738;2023-06-05T07:59:04;8.13;;;3.47;;
59074;SDS011;44860;53.020;6.738;2023-06-05T08:01:31;5.63;;;3.78;;
59074;SDS011;44860;53.020;6.738;2023-06-05T08:04:01;5.75;;;3.70;;
59074;SDS011;44860;53.020;6.738;2023-06-05T08:06:31;6.35;;;3.58;;
59074;SDS011;44860;53.020;6.738;2023-06-05T08:09:00;4.63;;;3.55;;
59074;SDS011;44860;53.020;6.738;2023-06-05T08:11:26;6.82;;;3.55;;
59074;SDS011;44860;53.020;6.738;2023-06-05T08:13:53;5.57;;;3.20;;
59074;SDS011;44860;53.020;6.738;2023-06-05T08:16:19;4.97;;;3.28;;
59074;SDS011;44860;53.020;6.738;2023-06-05T08:18:45;5.00;;;3.50;;
59074;SDS011;44860;53.020;6.738;2023-06-05T08:21:12;4.95;;;3.67;;
59074;SDS011;44860;53.020;6.738;2023-06-05T08:23:38;6.70;;;3.65;;
59074;SDS011;44860;53.020;6.738;2023-06-05T08:26:04;5.47;;;3.53;;
59074;SDS011;44860;53.020;6.738;2023-06-05T08:28:39;5.93;;;3.20;;
59074;SDS011;44860;53.020;6.738;2023-06-05T08:31:06;5.30;;;3.25;;
59074;SDS011;44860;53.020;6.738;2023-06-05T08:33:35;6.07;;;3.60;;
59074;SDS011;44860;53.020;6.738;2023-06-05T08:36:02;5.07;;;3.70;;
59074;SDS011;44860;53.020;6.738;2023-06-05T08:38:29;4.50;;;3.80;;
59074;SDS011;44860;53.020;6.738;2023-06-05T08:41:13;4.43;;;3.80;;
59074;SDS011;44860;53.020;6.738;2023-06-05T08:43:41;6.95;;;4.05;;
59074;SDS011;44860;53.020;6.738;2023-06-05T08:46:09;5.35;;;3.72;;
59074;SDS011;44860;53.020;6.738;2023-06-05T08:48:46;5.30;;;3.80;;
59074;SDS011;44860;53.020;6.738;2023-06-05T08:51:17;4.65;;;3.85;;
59074;SDS011;44860;53.020;6.738;2023-06-05T08:53:47;5.65;;;3.97;;
59074;SDS011;44860;53.020;6.738;2023-06-05T08:56:37;6.13;;;4.00;;
59074;SDS011;44860;53.020;6.738;2023-06-05T08:59:07;5.20;;;3.97;;
59074;SDS011;44860;53.020;6.738;2023-06-05T09:01:33;5.05;;;3.95;;
59074;SDS011;44860;53.020;6.738;2023-06-05T09:03:59;5.03;;;3.17;;
59074;SDS011;44860;53.020;6.738;2023-06-05T09:06:24;5.13;;;3.42;;
59074;SDS011;44860;53.020;6.738;2023-06-05T09:08:50;4.78;;;3.58;;
59074;SDS011;44860;53.020;6.738;2023-06-05T09:11:23;4.20;;;3.60;;
59074;SDS011;44860;53.020;6.738;2023-06-05T09:13:50;4.10;;;3.42;;
59074;SDS011;44860;53.020;6.738;2023-06-05T09:16:23;4.65;;;3.53;;
59074;SDS011;44860;53.020;6.738;2023-06-05T09:18:59;5.40;;;3.80;;
59074;SDS011;44860;53.020;6.738;2023-06-05T09:21:25;5.10;;;3.67;;
59074;SDS011;44860;53.020;6.738;2023-06-05T09:29:12;6.10;;;3.85;;
59074;SDS011;44860;53.020;6.738;2023-06-05T09:31:41;4.43;;;3.80;;
59074;SDS011;44860;53.020;6.738;2023-06-05T09:34:07;6.05;;;3.75;;
59074;SDS011;44860;53.020;6.738;2023-06-05T09:36:33;4.90;;;3.65;;
59074;SDS011;44860;53.020;6.738;2023-06-05T09:39:13;4.25;;;3.85;;
59074;SDS011;44860;53.020;6.738;2023-06-05T09:41:43;6.07;;;3.90;;
59074;SDS011;44860;53.020;6.738;2023-06-05T09:44:10;5.85;;;4.18;;
59074;SDS011;44860;53.020;6.738;2023-06-05T09:46:49;5.30;;;3.80;;
59074;SDS011;44860;53.020;6.738;2023-06-05T09:49:15;5.63;;;3.53;;
59074;SDS011;44860;53.020;6.738;2023-06-05T09:51:42;4.70;;;3.70;;
59074;SDS011;44860;53.020;6.738;2023-06-05T09:54:08;6.57;;;3.40;;
59074;SDS011;44860;53.020;6.738;2023-06-05T09:56:36;4.07;;;3.38;;
59074;SDS011;44860;53.020;6.738;2023-06-05T09:59:04;9.15;;;4.13;;
59074;SDS011;44860;53.020;6.738;2023-06-05T10:01:32;6.80;;;4.03;;
59074;SDS011;44860;53.020;6.738;2023-06-05T10:04:02;5.93;;;3.35;;
59074;SDS011;44860;53.020;6.738;2023-06-05T10:06:32;5.00;;;3.78;;
59074;SDS011;44860;53.020;6.738;2023-06-05T10:08:58;8.50;;;3.70;;
59074;SDS011;44860;53.020;6.738;2023-06-05T10:11:25;4.80;;;3.33;;
59074;SDS011;44860;53.020;6.738;2023-06-05T10:13:55;5.38;;;3.20;;
59074;SDS011;44860;53.020;6.738;2023-06-05T10:16:26;5.15;;;3.50;;
59074;SDS011;44860;53.020;6.738;2023-06-05T10:18:56;4.53;;;2.65;;
59074;SDS011;44860;53.020;6.738;2023-06-05T10:21:24;6.22;;;3.67;;
59074;SDS011;44860;53.020;6.738;2023-06-05T10:26:34;5.57;;;3.10;;
59074;SDS011;44860;53.020;6.738;2023-06-05T10:31:59;5.88;;;3.38;;
59074;SDS011;44860;53.020;6.738;2023-06-05T10:40:38;5.93;;;3.10;;
59074;SDS011;44860;53.020;6.738;2023-06-05T10:45:50;4.55;;;3.50;;
59074;SDS011;44860;53.020;6.738;2023-06-05T10:48:16;5.22;;;3.67;;
59074;SDS011;44860;53.020;6.738;2023-06-05T10:50:43;5.13;;;3.05;;
59074;SDS011;44860;53.020;6.738;2023-06-05T10:53:40;4.63;;;3.20;;
59074;SDS011;44860;53.020;6.738;2023-06-05T11:17:55;5.45;;;3.67;;
59074;SDS011;44860;53.020;6.738;2023-06-05T11:27:52;4.10;;;3.10;;
59074;SDS011;44860;53.020;6.738;2023-06-05T11:30:29;4.07;;;3.22;;
59074;SDS011;44860;53.020;6.738;2023-06-05T11:35:31;3.70;;;2.97;;
59074;SDS011;44860;53.020;6.738;2023-06-05T11:38:10;7.00;;;3.70;;
59074;SDS011;44860;53.020;6.738;2023-06-05T11:40:44;5.38;;;3.55;;
59074;SDS011;44860;53.020;6.738;2023-06-05T11:43:10;6.15;;;3.83;;
59074;SDS011;44860;53.020;6.738;2023-06-05T11:45:38;4.65;;;3.03;;
59074;SDS011;44860;53.020;6.738;2023-06-05T11:48:09;5.13;;;3.20;;
59074;SDS011;44860;53.020;6.738;2023-06-05T11:50:36;5.70;;;3.05;;
59074;SDS011;44860;53.020;6.738;2023-06-05T11:53:06;6.22;;;3.13;;
59074;SDS011;44860;53.020;6.738;2023-06-05T11:55:33;4.85;;;3.60;;
59074;SDS011;44860;53.020;6.738;2023-06-05T11:58:35;3.95;;;2.90;;
59074;SDS011;44860;53.020;6.738;2023-06-05T12:01:07;3.75;;;3.20;;
59074;SDS011;44860;53.020;6.738;2023-06-05T12:03:42;4.88;;;3.55;;
59074;SDS011;44860;53.020;6.738;2023-06-05T12:06:10;5.25;;;3.25;;
59074;SDS011;44860;53.020;6.738;2023-06-05T12:08:40;4.22;;;3.28;;
59074;SDS011;44860;53.020;6.738;2023-06-05T12:11:23;4.65;;;3.20;;
59074;SDS011;44860;53.020;6.738;2023-06-05T12:13:51;4.75;;;3.58;;
59074;SDS011;44860;53.020;6.738;2023-06-05T12:16:20;3.30;;;2.90;;
59074;SDS011;44860;53.020;6.738;2023-06-05T12:18:55;7.00;;;3.00;;
59074;SDS011;44860;53.020;6.738;2023-06-05T12:21:22;4.95;;;3.28;;
59074;SDS011;44860;53.020;6.738;2023-06-05T12:23:59;4.30;;;3.63;;
59074;SDS011;44860;53.020;6.738;2023-06-05T12:26:26;5.32;;;3.00;;
59074;SDS011;44860;53.020;6.738;2023-06-05T12:29:03;3.92;;;2.78;;
59074;SDS011;44860;53.020;6.738;2023-06-05T12:31:36;6.65;;;3.72;;
59074;SDS011;44860;53.020;6.738;2023-06-05T12:34:04;6.22;;;3.00;;
59074;SDS011;44860;53.020;6.738;2023-06-05T12:36:31;3.35;;;3.00;;
59074;SDS011;44860;53.020;6.738;2023-06-05T12:39:03;4.43;;;3.03;;
59074;SDS011;44860;53.020;6.738;2023-06-05T12:41:30;4.68;;;2.70;;
59074;SDS011;44860;53.020;6.738;2023-06-05T12:44:00;4.32;;;2.80;;
59074;SDS011;44860;53.020;6.738;2023-06-05T12:46:27;4.32;;;2.83;;
59074;SDS011;44860;53.020;6.738;2023-06-05T12:48:53;9.20;;;3.92;;
59074;SDS011;44860;53.020;6.738;2023-06-05T12:51:19;5.75;;;2.90;;
59074;SDS011;44860;53.020;6.738;2023-06-05T12:53:45;5.45;;;3.15;;
59074;SDS011;44860;53.020;6.738;2023-06-05T12:56:11;4.93;;;2.83;;
59074;SDS011;44860;53.020;6.738;2023-06-05T12:58:36;5.07;;;2.67;;
59074;SDS011;44860;53.020;6.738;2023-06-05T13:01:02;12.20;;;3.53;;
59074;SDS011;44860;53.020;6.738;2023-06-05T13:03:28;5.35;;;3.03;;
59074;SDS011;44860;53.020;6.738;2023-06-05T13:05:54;5.65;;;3.05;;
59074;SDS011;44860;53.020;6.738;2023-06-05T13:08:20;7.65;;;3.20;;
59074;SDS011;44860;53.020;6.738;2023-06-05T13:10:45;3.22;;;2.80;;
59074;SDS011;44860;53.020;6.738;2023-06-05T13:13:11;6.80;;;3.25;;
59074;SDS011;44860;53.020;6.738;2023-06-05T13:15:37;6.88;;;3.20;;
59074;SDS011;44860;53.020;6.738;2023-06-05T13:18:02;4.40;;;2.78;;
59074;SDS011;44860;53.020;6.738;2023-06-05T13:20:28;4.43;;;2.50;;
59074;SDS011;44860;53.020;6.738;2023-06-05T13:22:54;5.00;;;2.70;;
59074;SDS011;44860;53.020;6.738;2023-06-05T13:25:19;4.15;;;2.80;;
59074;SDS011;44860;53.020;6.738;2023-06-05T13:27:45;4.05;;;2.70;;
59074;SDS011;44860;53.020;6.738;2023-06-05T13:30:11;3.70;;;2.83;;
59074;SDS011;44860;53.020;6.738;2023-06-05T13:32:36;4.13;;;3.20;;
59074;SDS011;44860;53.020;6.738;2023-06-05T13:35:06;6.05;;;2.90;;
59074;SDS011;44860;53.020;6.738;2023-06-05T13:37:33;4.32;;;2.90;;
59074;SDS011;44860;53.020;6.738;2023-06-05T13:39:58;8.63;;;2.90;;
59074;SDS011;44860;53.020;6.738;2023-06-05T13:42:24;5.78;;;3.25;;
59074;SDS011;44860;53.020;6.738;2023-06-05T13:44:49;3.08;;;2.50;;
59074;SDS011;44860;53.020;6.738;2023-06-05T13:47:15;5.22;;;3.03;;
59074;SDS011;44860;53.020;6.738;2023-06-05T13:49:41;4.03;;;3.13;;
59074;SDS011;44860;53.020;6.738;2023-06-05T13:52:06;4.38;;;2.80;;
59074;SDS011;44860;53.020;6.738;2023-06-05T13:54:32;4.32;;;3.15;;
59074;SDS011;44860;53.020;6.738;2023-06-05T13:56:58;8.20;;;3.55;;
59074;SDS011;44860;53.020;6.738;2023-06-05T13:59:24;6.72;;;3.92;;
59074;SDS011;44860;53.020;6.738;2023-06-05T14:01:50;6.60;;;4.18;;
59074;SDS011;44860;53.020;6.738;2023-06-05T14:04:16;5.70;;;3.63;;
59074;SDS011;44860;53.020;6.738;2023-06-05T14:06:42;6.75;;;4.43;;
59074;SDS011;44860;53.020;6.738;2023-06-05T14:09:08;7.47;;;4.47;;
59074;SDS011;44860;53.020;6.738;2023-06-05T14:11:33;4.82;;;3.90;;
59074;SDS011;44860;53.020;6.738;2023-06-05T14:13:59;12.13;;;4.68;;
59074;SDS011;44860;53.020;6.738;2023-06-05T14:16:26;6.22;;;3.72;;
59074;SDS011;44860;53.020;6.738;2023-06-05T14:18:52;5.40;;;3.95;;
59074;SDS011;44860;53.020;6.738;2023-06-05T14:21:18;6.38;;;4.28;;
59074;SDS011;44860;53.020;6.738;2023-06-05T14:23:43;6.70;;;4.30;;
59074;SDS011;44860;53.020;6.738;2023-06-05T14:26:09;5.68;;;4.40;;
59074;SDS011;44860;53.020;6.738;2023-06-05T14:28:36;10.02;;;5.22;;
59074;SDS011;44860;53.020;6.738;2023-06-05T14:31:01;7.20;;;4.82;;
59074;SDS011;44860;53.020;6.738;2023-06-05T14:33:27;7.32;;;4.75;;
59074;SDS011;44860;53.020;6.738;2023-06-05T14:35:53;6.95;;;4.82;;
59074;SDS011;44860;53.020;6.738;2023-06-05T14:38:18;8.15;;;4.80;;
59074;SDS011;44860;53.020;6.738;2023-06-05T14:40:44;7.78;;;5.22;;
59074;SDS011;44860;53.020;6.738;2023-06-05T14:43:10;6.30;;;4.75;;
59074;SDS011;44860;53.020;6.738;2023-06-05T14:45:36;7.93;;;5.07;;
59074;SDS011;44860;53.020;6.738;2023-06-05T14:48:01;9.57;;;5.97;;
59074;SDS011;44860;53.020;6.738;2023-06-05T14:50:27;8.95;;;6.45;;
59074;SDS011;44860;53.020;6.738;2023-06-05T14:52:54;6.07;;;4.80;;
59074;SDS011;44860;53.020;6.738;2023-06-05T14:55:19;6.53;;;5.15;;
59074;SDS011;44860;53.020;6.738;2023-06-05T14:57:45;6.22;;;5.00;;
59074;SDS011;44860;53.020;6.738;2023-06-05T15:00:11;10.40;;;6.22;;
59074;SDS011;44860;53.020;6.738;2023-06-05T15:02:37;7.35;;;4.60;;
59074;SDS011;44860;53.020;6.738;2023-06-05T15:05:03;7.65;;;4.57;;
59074;SDS011;44860;53.020;6.738;2023-06-05T15:07:36;7.22;;;5.20;;
59074;SDS011;44860;53.020;6.738;2023-06-05T15:10:06;8.93;;;6.47;;
59074;SDS011;44860;53.020;6.738;2023-06-05T15:12:40;7.88;;;4.72;;
59074;SDS011;44860;53.020;6.738;2023-06-05T15:15:06;8.57;;;4.90;;
59074;SDS011;44860;53.020;6.738;2023-06-05T15:17:33;8.07;;;5.07;;
59074;SDS011;44860;53.020;6.738;2023-06-05T15:19:59;8.40;;;5.22;;
59074;SDS011;44860;53.020;6.738;2023-06-05T15:22:24;5.22;;;4.05;;
59074;SDS011;44860;53.020;6.738;2023-06-05T15:24:50;7.47;;;4.82;;
59074;SDS011;44860;53.020;6.738;2023-06-05T15:27:15;10.88;;;5.85;;
59074;SDS011;44860;53.020;6.738;2023-06-05T15:29:41;6.85;;;4.22;;
59074;SDS011;44860;53.020;6.738;2023-06-05T15:32:07;9.45;;;4.63;;
59074;SDS011;44860;53.020;6.738;2023-06-05T15:34:32;7.45;;;4.30;;
59074;SDS011;44860;53.020;6.738;2023-06-05T15:36:58;8.18;;;5.50;;
59074;SDS011;44860;53.020;6.738;2023-06-05T15:39:24;10.27;;;4.63;;
59074;SDS011;44860;53.020;6.738;2023-06-05T15:41:49;12.43;;;4.40;;